createdAt,value
2023-05-20T00:01:39.063Z,14.11
2023-05-20T00:04:05.790Z,14.19
2023-05-20T00:06:32.529Z,14.30
2023-05-20T00:09:00.240Z,14.29
2023-05-20T00:11:26.975Z,14.30
2023-05-20T00:13:53.399Z,14.36
2023-05-20T00:16:19.923Z,14.29
2023-05-20T00:18:46.469Z,14.23
2023-05-20T00:21:12.966Z,14.20
2023-05-20T00:23:39.458Z,14.25
2023-05-20T00:26:05.971Z,14.31
2023-05-20T00:28:32.401Z,14.37
2023-05-20T00:30:58.834Z,14.37
2023-05-20T00:33:25.263Z,14.34
2023-05-20T00:35:51.730Z,14.33
2023-05-20T00:38:18.635Z,14.30
2023-05-20T00:40:45.631Z,14.20
2023-05-20T00:43:12.229Z,14.18
2023-05-20T00:45:39.056Z,14.18
2023-05-20T00:48:06.709Z,14.23
2023-05-20T00:50:33.827Z,14.22
2023-05-20T00:53:00.347Z,14.24
2023-05-20T00:55:26.881Z,14.31
2023-05-20T00:57:54.313Z,14.36
2023-05-20T01:00:20.848Z,14.38
2023-05-20T01:02:47.664Z,14.39
2023-05-20T01:05:14.249Z,14.38
2023-05-20T01:07:41.470Z,14.35
2023-05-20T01:10:09.430Z,14.38
2023-05-20T01:12:39.918Z,14.37
2023-05-20T01:15:10.767Z,14.35
2023-05-20T01:17:46.628Z,14.35
2023-05-20T01:20:14.595Z,14.36
2023-05-20T01:22:47.324Z,14.40
2023-05-20T01:25:13.780Z,14.37
2023-05-20T01:27:40.231Z,14.33
2023-05-20T01:30:07.766Z,14.25
2023-05-20T01:32:41.128Z,14.20
2023-05-20T01:35:08.813Z,14.21
2023-05-20T01:37:38.489Z,14.22
2023-05-20T01:40:07.148Z,14.26
2023-05-20T01:42:34.457Z,14.27
2023-05-20T01:45:01.144Z,14.26
2023-05-20T01:47:27.617Z,14.22
2023-05-20T01:49:54.265Z,14.28
2023-05-20T01:52:22.072Z,14.21
2023-05-20T01:54:51.193Z,14.15
2023-05-20T01:57:24.187Z,14.18
2023-05-20T01:59:50.764Z,14.21
2023-05-20T02:02:17.417Z,14.29
2023-05-20T02:04:48.928Z,14.35
2023-05-20T02:07:16.374Z,14.37
2023-05-20T02:09:42.900Z,14.36
2023-05-20T02:12:10.028Z,14.33
2023-05-20T02:14:36.669Z,14.38
2023-05-20T02:17:03.396Z,14.42
2023-05-20T02:19:29.936Z,14.41
2023-05-20T02:21:56.518Z,14.33
2023-05-20T02:24:22.950Z,14.27
2023-05-20T02:26:51.209Z,14.28
2023-05-20T02:29:17.740Z,14.30
2023-05-20T02:31:44.189Z,14.30
2023-05-20T02:34:10.808Z,14.27
2023-05-20T02:36:37.253Z,14.18
2023-05-20T02:39:03.857Z,14.15
2023-05-20T02:41:30.491Z,14.10
2023-05-20T02:43:56.925Z,14.11
2023-05-20T02:46:23.408Z,14.19
2023-05-20T02:48:49.884Z,14.19
2023-05-20T02:51:16.302Z,14.20
2023-05-20T02:53:42.736Z,14.21
2023-05-20T02:56:09.197Z,14.20
2023-05-20T02:58:35.700Z,14.17
2023-05-20T03:01:02.484Z,14.17
2023-05-20T03:03:29.433Z,14.19
2023-05-20T03:05:55.990Z,14.21
2023-05-20T03:08:23.372Z,14.19
2023-05-20T03:10:50.153Z,14.21
2023-05-20T03:13:16.663Z,14.23
2023-05-20T03:15:45.496Z,14.28
2023-05-20T03:18:13.665Z,14.32
2023-05-20T03:20:41.492Z,14.32
2023-05-20T03:23:08.839Z,14.31
2023-05-20T03:25:36.466Z,14.29
2023-05-20T03:28:03.748Z,14.28
2023-05-20T03:30:30.596Z,14.27
2023-05-20T03:32:57.902Z,14.24
2023-05-20T03:35:25.195Z,14.24
2023-05-20T03:37:53.209Z,14.22
2023-05-20T03:40:23.480Z,14.25
2023-05-20T03:42:51.914Z,14.23
2023-05-20T03:45:18.487Z,14.22
2023-05-20T03:47:45.014Z,14.18
2023-05-20T03:50:11.596Z,14.21
2023-05-20T03:52:38.360Z,14.24
2023-05-20T03:55:05.143Z,14.29
2023-05-20T03:57:32.271Z,14.35
2023-05-20T03:59:58.711Z,14.34
2023-05-20T04:02:25.341Z,14.22
2023-05-20T04:04:52.948Z,14.19
2023-05-20T04:07:19.642Z,14.22
2023-05-20T04:09:46.674Z,14.24
2023-05-20T04:12:13.909Z,14.29
2023-05-20T04:14:42.188Z,14.33
2023-05-20T04:17:09.606Z,14.37
2023-05-20T04:19:38.251Z,14.38
2023-05-20T04:22:04.990Z,14.37
2023-05-20T04:24:31.481Z,14.35
2023-05-20T04:26:58.066Z,14.33
2023-05-20T04:29:24.508Z,14.34
2023-05-20T04:31:51.004Z,14.35
2023-05-20T04:34:20.208Z,14.32
2023-05-20T04:36:47.122Z,14.30
2023-05-20T04:39:13.956Z,14.27
2023-05-20T04:41:40.435Z,14.28
2023-05-20T04:44:07.283Z,14.33
2023-05-20T04:46:33.965Z,14.31
2023-05-20T04:49:00.587Z,14.29
2023-05-20T04:51:27.076Z,14.25
2023-05-20T04:53:53.564Z,14.18
2023-05-20T04:56:20.036Z,14.21
2023-05-20T04:58:46.615Z,14.18
2023-05-20T05:01:13.138Z,14.20
2023-05-20T05:03:39.600Z,14.25
2023-05-20T05:06:06.252Z,14.26
2023-05-20T05:08:32.716Z,14.27
2023-05-20T05:10:59.209Z,14.21
2023-05-20T05:13:26.671Z,14.22
2023-05-20T05:16:00.588Z,14.24
2023-05-20T05:18:27.267Z,14.13
2023-05-20T05:21:01.720Z,14.11
2023-05-20T05:23:28.200Z,14.13
2023-05-20T05:25:55.237Z,14.14
2023-05-20T05:28:21.800Z,14.16
2023-05-20T05:30:48.971Z,14.14
2023-05-20T05:33:18.292Z,14.17
2023-05-20T05:35:44.761Z,14.23
2023-05-20T05:38:11.304Z,14.33
2023-05-20T05:40:37.829Z,14.35
2023-05-20T05:43:04.385Z,14.41
2023-05-20T05:45:31.213Z,14.38
2023-05-20T05:47:57.868Z,14.39
2023-05-20T05:50:24.450Z,14.43
2023-05-20T05:52:50.959Z,14.44
2023-05-20T05:55:18.370Z,14.47
2023-05-20T05:57:44.939Z,14.47
2023-05-20T06:00:11.989Z,14.47
2023-05-20T06:02:38.609Z,14.49
2023-05-20T06:05:06.049Z,14.52
2023-05-20T06:07:32.522Z,14.54
2023-05-20T06:09:59.412Z,14.56
2023-05-20T06:12:25.878Z,14.59
2023-05-20T06:14:52.400Z,14.60
2023-05-20T06:17:18.928Z,14.61
2023-05-20T06:19:45.446Z,14.64
2023-05-20T06:22:11.953Z,14.67
2023-05-20T06:24:38.422Z,14.63
2023-05-20T06:27:05.206Z,14.61
2023-05-20T06:29:31.747Z,14.63
2023-05-20T06:31:58.308Z,14.66
2023-05-20T06:34:25.120Z,14.68
2023-05-20T06:36:51.594Z,14.68
2023-05-20T06:39:18.460Z,14.69
2023-05-20T06:41:44.914Z,14.68
2023-05-20T06:44:11.364Z,14.67
2023-05-20T06:46:37.925Z,14.70
2023-05-20T06:49:04.457Z,14.75
2023-05-20T06:51:31.030Z,14.75
2023-05-20T06:53:57.518Z,14.73
2023-05-20T06:56:24.249Z,14.73
2023-05-20T06:58:50.781Z,14.75
2023-05-20T07:01:18.347Z,14.78
2023-05-20T07:03:45.012Z,14.80
2023-05-20T07:06:17.643Z,14.79
2023-05-20T07:08:44.434Z,14.76
2023-05-20T07:11:10.966Z,14.74
2023-05-20T07:13:37.972Z,14.72
2023-05-20T07:16:04.807Z,14.77
2023-05-20T07:18:31.462Z,14.84
2023-05-20T07:20:57.969Z,14.85
2023-05-20T07:23:24.474Z,14.87
2023-05-20T07:25:51.638Z,14.85
2023-05-20T07:28:18.166Z,14.88
2023-05-20T07:30:50.185Z,14.90
2023-05-20T07:33:17.790Z,14.91
2023-05-20T07:35:45.504Z,14.94
2023-05-20T07:38:12.830Z,14.95
2023-05-20T07:40:42.333Z,14.91
2023-05-20T07:43:09.197Z,14.97
2023-05-20T07:45:37.156Z,14.97
2023-05-20T07:48:04.979Z,14.97
2023-05-20T07:50:31.587Z,14.98
2023-05-20T07:52:58.063Z,14.99
2023-05-20T07:55:24.642Z,15.04
2023-05-20T07:57:51.152Z,15.05
2023-05-20T08:00:17.808Z,15.04
2023-05-20T08:02:44.546Z,15.05
2023-05-20T08:05:11.180Z,15.10
2023-05-20T08:07:43.560Z,15.13
2023-05-20T08:10:10.362Z,15.03
2023-05-20T08:12:37.165Z,14.97
2023-05-20T08:15:04.397Z,14.97
2023-05-20T08:17:30.990Z,15.01
2023-05-20T08:19:57.445Z,15.04
2023-05-20T08:22:23.999Z,14.96
2023-05-20T08:24:50.627Z,14.97
2023-05-20T08:27:17.048Z,14.96
2023-05-20T08:29:45.221Z,14.94
2023-05-20T08:32:11.905Z,14.96
2023-05-20T08:34:38.858Z,14.98
2023-05-20T08:37:05.462Z,15.03
2023-05-20T08:39:31.939Z,15.05
2023-05-20T08:41:58.588Z,15.10
2023-05-20T08:44:26.448Z,15.05
2023-05-20T08:46:53.260Z,15.05
2023-05-20T08:49:20.613Z,15.04
2023-05-20T08:51:48.210Z,15.11
2023-05-20T08:54:16.806Z,15.20
2023-05-20T08:56:50.217Z,15.26
2023-05-20T08:59:18.059Z,15.25
2023-05-20T09:01:44.757Z,15.40
2023-05-20T09:04:11.473Z,15.29
2023-05-20T09:06:45.810Z,15.38
2023-05-20T09:09:13.865Z,15.37
2023-05-20T09:11:41.470Z,15.40
2023-05-20T09:14:08.303Z,15.42
2023-05-20T09:16:35.400Z,15.40
2023-05-20T09:19:01.947Z,15.44
2023-05-20T09:21:29.157Z,15.43
2023-05-20T09:23:59.090Z,15.35
2023-05-20T09:26:30.198Z,15.34
2023-05-20T09:29:00.310Z,15.30
2023-05-20T09:31:34.099Z,15.34
2023-05-20T09:34:01.213Z,15.35
2023-05-20T09:36:34.340Z,15.39
2023-05-20T09:39:05.683Z,15.45
2023-05-20T09:41:38.323Z,15.51
2023-05-20T09:44:06.768Z,15.55
2023-05-20T09:46:34.428Z,15.46
2023-05-20T09:49:01.405Z,15.47
2023-05-20T09:51:29.654Z,15.47
2023-05-20T09:53:57.422Z,15.50
2023-05-20T09:56:25.253Z,15.58
2023-05-20T09:58:58.205Z,15.60
2023-05-20T10:01:25.553Z,15.57
2023-05-20T10:03:55.085Z,15.59
2023-05-20T10:07:02.385Z,15.60
2023-05-20T10:09:55.159Z,15.54
2023-05-20T10:12:41.807Z,15.49
2023-05-20T10:15:26.282Z,15.59
2023-05-20T10:18:01.622Z,15.57
2023-05-20T10:20:28.525Z,15.58
2023-05-20T10:22:57.534Z,15.64
2023-05-20T10:25:27.170Z,15.71
2023-05-20T10:28:05.620Z,15.70
2023-05-20T10:30:32.207Z,15.67
2023-05-20T10:33:05.556Z,15.69
2023-05-20T10:35:32.690Z,15.64
2023-05-20T10:38:10.953Z,15.72
2023-05-20T10:40:38.286Z,15.78
2023-05-20T10:43:12.212Z,15.78
2023-05-20T10:45:49.898Z,15.77
2023-05-20T10:48:31.494Z,15.81
2023-05-20T10:51:06.031Z,15.81
2023-05-20T10:53:46.928Z,15.85
2023-05-20T10:56:23.810Z,15.81
2023-05-20T10:58:52.053Z,15.79
2023-05-20T11:01:20.331Z,15.74
2023-05-20T11:03:51.717Z,15.68
2023-05-20T11:06:18.966Z,15.66
2023-05-20T11:08:46.266Z,15.68
2023-05-20T11:11:14.894Z,15.67
2023-05-20T11:13:41.844Z,15.60
2023-05-20T11:16:09.028Z,15.64
2023-05-20T11:18:35.717Z,15.73
2023-05-20T11:21:02.603Z,15.65
2023-05-20T11:23:29.963Z,15.54
2023-05-20T11:25:57.817Z,15.54
2023-05-20T11:28:24.457Z,15.57
2023-05-20T11:30:52.602Z,15.58
2023-05-20T11:33:19.694Z,15.60
2023-05-20T11:35:53.060Z,15.56
2023-05-20T11:38:21.548Z,15.62
2023-05-20T11:40:55.825Z,15.63
2023-05-20T11:43:23.884Z,15.61
2023-05-20T11:45:57.910Z,15.64
2023-05-20T11:48:25.416Z,15.63
2023-05-20T11:50:55.449Z,15.60
2023-05-20T11:53:26.564Z,15.59
2023-05-20T11:55:58.077Z,15.54
2023-05-20T11:58:31.634Z,15.57
2023-05-20T12:01:21.087Z,15.58
2023-05-20T12:03:51.883Z,15.59
2023-05-20T12:06:28.592Z,15.57
2023-05-20T12:08:57.911Z,15.56
2023-05-20T12:11:32.079Z,15.63
2023-05-20T12:14:03.776Z,15.62
2023-05-20T12:16:34.560Z,15.61
2023-05-20T12:19:02.285Z,15.63
2023-05-20T12:21:32.321Z,15.63
2023-05-20T12:24:02.355Z,15.63
2023-05-20T12:26:36.141Z,15.59
2023-05-20T12:29:06.054Z,15.58
2023-05-20T12:31:37.582Z,15.56
2023-05-20T12:34:07.133Z,15.51
2023-05-20T12:36:42.353Z,15.49
2023-05-20T12:39:16.204Z,15.51
2023-05-20T12:41:50.434Z,15.55
2023-05-20T12:44:17.522Z,15.53
2023-05-20T12:46:44.331Z,15.58
2023-05-20T12:49:11.170Z,15.64
2023-05-20T12:51:37.699Z,15.64
2023-05-20T12:54:04.746Z,15.64
2023-05-20T12:56:31.395Z,15.60
2023-05-20T12:58:58.101Z,15.61
2023-05-20T13:01:28.023Z,15.59
2023-05-20T13:03:55.516Z,15.58
2023-05-20T13:06:22.091Z,15.60
2023-05-20T13:08:49.109Z,15.62
2023-05-20T13:11:15.876Z,15.67
2023-05-20T13:13:43.225Z,15.66
2023-05-20T13:16:10.608Z,15.66
2023-05-20T13:18:38.537Z,15.67
2023-05-20T13:21:05.220Z,15.72
2023-05-20T13:23:31.702Z,15.70
2023-05-20T13:25:58.174Z,15.75
2023-05-20T13:28:24.956Z,15.72
2023-05-20T13:30:51.696Z,15.71
2023-05-20T13:33:19.643Z,15.67
2023-05-20T13:35:46.132Z,15.68
2023-05-20T13:38:12.659Z,15.72
2023-05-20T13:40:39.415Z,15.72
2023-05-20T13:43:06.464Z,15.71
2023-05-20T13:45:34.250Z,15.72
2023-05-20T13:48:01.150Z,15.68
2023-05-20T13:50:27.958Z,15.67
2023-05-20T13:52:54.611Z,15.67
2023-05-20T13:55:23.399Z,15.68
2023-05-20T13:57:53.278Z,15.66
2023-05-20T14:00:24.572Z,15.55
2023-05-20T14:02:59.113Z,15.57
2023-05-20T14:05:27.722Z,15.60
2023-05-20T14:07:57.288Z,15.57
2023-05-20T14:10:29.631Z,15.54
2023-05-20T14:13:10.164Z,15.55
2023-05-20T14:15:44.615Z,15.55
2023-05-20T14:18:13.156Z,15.62
2023-05-20T14:20:39.819Z,15.62
2023-05-20T14:23:06.538Z,15.62
2023-05-20T14:25:33.277Z,15.62
2023-05-20T14:28:00.989Z,15.65
2023-05-20T14:30:27.684Z,15.68
2023-05-20T14:32:54.421Z,15.71
2023-05-20T14:35:21.074Z,15.72
2023-05-20T14:37:47.701Z,15.83
2023-05-20T14:40:16.725Z,15.83
2023-05-20T14:42:43.702Z,15.79
2023-05-20T14:45:10.793Z,15.84
2023-05-20T14:47:40.402Z,15.80
2023-05-20T14:50:11.567Z,15.80
2023-05-20T14:52:38.327Z,15.78
2023-05-20T14:55:06.036Z,15.79
2023-05-20T14:57:33.094Z,15.73
2023-05-20T15:00:00.049Z,15.71
2023-05-20T15:02:27.461Z,15.71
2023-05-20T15:04:54.130Z,15.68
2023-05-20T15:07:20.860Z,15.67
2023-05-20T15:09:48.103Z,15.69
2023-05-20T15:12:16.035Z,15.68
2023-05-20T15:14:43.170Z,15.68
2023-05-20T15:17:19.752Z,15.68
2023-05-20T15:19:50.339Z,15.62
2023-05-20T15:22:16.931Z,15.63
2023-05-20T15:24:43.445Z,15.64
2023-05-20T15:27:09.957Z,15.64
2023-05-20T15:29:38.107Z,15.63
2023-05-20T15:32:05.816Z,15.66
2023-05-20T15:34:34.015Z,15.72
2023-05-20T15:37:00.725Z,15.75
2023-05-20T15:39:28.532Z,15.80
2023-05-20T15:41:56.294Z,15.84
2023-05-20T15:44:22.796Z,15.90
2023-05-20T15:46:49.319Z,15.93
2023-05-20T15:49:23.719Z,15.95
2023-05-20T15:52:02.295Z,15.99
2023-05-20T15:54:29.980Z,15.98
2023-05-20T15:56:56.662Z,15.98
2023-05-20T15:59:23.381Z,15.97
2023-05-20T16:01:49.868Z,15.92
2023-05-20T16:04:16.581Z,15.90
2023-05-20T16:06:43.227Z,15.89
2023-05-20T16:09:09.723Z,15.84
2023-05-20T16:11:36.376Z,15.83
2023-05-20T16:14:02.927Z,15.78
2023-05-20T16:16:29.570Z,15.78
2023-05-20T16:18:56.516Z,15.77
2023-05-20T16:21:24.998Z,15.76
2023-05-20T16:23:52.838Z,15.76
2023-05-20T16:26:19.498Z,15.73
2023-05-20T16:28:46.141Z,15.73
2023-05-20T16:31:12.604Z,15.73
2023-05-20T16:33:39.084Z,15.71
2023-05-20T16:36:06.201Z,15.74
2023-05-20T16:38:39.330Z,15.73
2023-05-20T16:41:05.913Z,15.73
2023-05-20T16:43:32.485Z,15.72
2023-05-20T16:45:59.268Z,15.76
2023-05-20T16:48:26.704Z,15.77
2023-05-20T16:50:53.232Z,15.77
2023-05-20T16:53:19.861Z,15.76
2023-05-20T16:55:47.144Z,15.77
2023-05-20T16:58:13.778Z,15.76
2023-05-20T17:00:41.019Z,15.78
2023-05-20T17:03:07.785Z,15.78
2023-05-20T17:05:58.266Z,15.76
2023-05-20T17:08:24.927Z,15.72
2023-05-20T17:10:54.426Z,15.73
2023-05-20T17:13:21.498Z,15.72
2023-05-20T17:15:48.316Z,15.72
2023-05-20T17:18:15.175Z,15.72
2023-05-20T17:20:42.746Z,15.74
2023-05-20T17:23:14.664Z,15.72
2023-05-20T17:25:51.260Z,15.69
2023-05-20T17:28:17.741Z,15.70
2023-05-20T17:30:44.235Z,15.67
2023-05-20T17:33:11.251Z,15.65
2023-05-20T17:35:37.863Z,15.63
2023-05-20T17:38:04.481Z,15.56
2023-05-20T17:40:30.951Z,15.51
2023-05-20T17:42:57.403Z,15.48
2023-05-20T17:45:23.855Z,15.48
2023-05-20T17:47:50.538Z,15.46
2023-05-20T17:50:17.019Z,15.45
2023-05-20T17:52:43.515Z,15.45
2023-05-20T17:55:10.029Z,15.43
2023-05-20T17:57:36.740Z,15.42
2023-05-20T18:00:05.443Z,15.40
2023-05-20T18:02:32.081Z,15.38
2023-05-20T18:04:58.620Z,15.36
2023-05-20T18:07:27.164Z,15.37
2023-05-20T18:09:53.754Z,15.36
2023-05-20T18:12:20.401Z,15.36
2023-05-20T18:14:46.854Z,15.36
2023-05-20T18:17:13.343Z,15.38
2023-05-20T18:19:39.869Z,15.41
2023-05-20T18:22:07.230Z,15.41
2023-05-20T18:24:33.816Z,15.40
2023-05-20T18:27:00.514Z,15.39
2023-05-20T18:29:27.089Z,15.41
2023-05-20T18:31:53.688Z,15.42
2023-05-20T18:34:20.261Z,15.42
2023-05-20T18:36:47.052Z,15.43
2023-05-20T18:39:15.952Z,15.46
2023-05-20T18:41:46.919Z,15.46
2023-05-20T18:44:15.525Z,15.44
2023-05-20T18:46:42.415Z,15.43
2023-05-20T18:49:10.565Z,15.46
2023-05-20T18:51:38.601Z,15.47
2023-05-20T18:54:05.397Z,15.44
2023-05-20T18:56:32.766Z,15.43
2023-05-20T18:58:59.618Z,15.42
2023-05-20T19:01:26.224Z,15.43
2023-05-20T19:03:52.769Z,15.44
2023-05-20T19:06:19.351Z,15.46
2023-05-20T19:08:46.095Z,15.47
2023-05-20T19:11:12.547Z,15.48
2023-05-20T19:13:39.012Z,15.50
2023-05-20T19:16:05.945Z,15.50
2023-05-20T19:18:32.394Z,15.50
2023-05-20T19:20:58.818Z,15.54
2023-05-20T19:23:25.518Z,15.52
2023-05-20T19:25:51.995Z,15.51
2023-05-20T19:28:18.608Z,15.50
2023-05-20T19:30:45.167Z,15.50
2023-05-20T19:33:11.670Z,15.51
2023-05-20T19:35:38.340Z,15.50
2023-05-20T19:38:06.891Z,15.51
2023-05-20T19:40:33.499Z,15.50
2023-05-20T19:43:00.457Z,15.47
2023-05-20T19:45:27.009Z,15.44
2023-05-20T19:47:53.577Z,15.43
2023-05-20T19:50:20.212Z,15.39
2023-05-20T19:52:46.677Z,15.38
2023-05-20T19:55:13.307Z,15.39
2023-05-20T19:57:39.753Z,15.42
2023-05-20T20:00:07.259Z,15.45
2023-05-20T20:02:33.757Z,15.46
2023-05-20T20:05:01.189Z,15.47
2023-05-20T20:07:27.789Z,15.45
2023-05-20T20:09:55.337Z,15.44
2023-05-20T20:12:22.542Z,15.46
2023-05-20T20:14:49.152Z,15.46
2023-05-20T20:17:17.371Z,15.47
2023-05-20T20:19:47.959Z,15.43
2023-05-20T20:22:15.100Z,15.40
2023-05-20T20:24:41.568Z,15.38
2023-05-20T20:27:08.062Z,15.36
2023-05-20T20:29:34.510Z,15.35
2023-05-20T20:32:02.208Z,15.29
2023-05-20T20:34:28.698Z,15.26
2023-05-20T20:36:55.145Z,15.31
2023-05-20T20:39:22.737Z,15.31
2023-05-20T20:41:50.404Z,15.30
2023-05-20T20:44:23.419Z,15.31
2023-05-20T20:46:50.768Z,15.34
2023-05-20T20:49:18.866Z,15.33
2023-05-20T20:51:46.434Z,15.29
2023-05-20T20:54:14.478Z,15.26
2023-05-20T20:56:42.050Z,15.27
2023-05-20T20:59:10.159Z,15.26
2023-05-20T21:01:37.764Z,15.26
2023-05-20T21:04:05.088Z,15.23
2023-05-20T21:06:32.966Z,15.22
2023-05-20T21:09:01.990Z,15.22
2023-05-20T21:11:28.756Z,15.22
2023-05-20T21:13:55.950Z,15.23
2023-05-20T21:16:22.987Z,15.23
2023-05-20T21:18:49.713Z,15.26
2023-05-20T21:21:20.404Z,15.31
2023-05-20T21:23:47.762Z,15.31
2023-05-20T21:26:14.199Z,15.32
2023-05-20T21:28:40.788Z,15.32
2023-05-20T21:31:07.292Z,15.33
2023-05-20T21:33:33.782Z,15.34
2023-05-20T21:36:00.502Z,15.36
2023-05-20T21:38:26.939Z,15.38
2023-05-20T21:40:53.381Z,15.36
2023-05-20T21:43:19.852Z,15.34
2023-05-20T21:45:46.364Z,15.33
2023-05-20T21:48:12.795Z,15.32
2023-05-20T21:50:39.399Z,15.33
2023-05-20T21:53:05.881Z,15.32
2023-05-20T21:55:32.353Z,15.31
2023-05-20T21:57:58.917Z,15.31
2023-05-20T22:00:25.370Z,15.28
2023-05-20T22:02:52.051Z,15.27
2023-05-20T22:05:18.606Z,15.27
2023-05-20T22:07:45.048Z,15.26
2023-05-20T22:10:13.627Z,15.25
2023-05-20T22:12:42.551Z,15.22
2023-05-20T22:15:09.362Z,15.20
2023-05-20T22:17:36.606Z,15.18
2023-05-20T22:20:08.259Z,15.17
2023-05-20T22:22:35.933Z,15.16
2023-05-20T22:25:03.119Z,15.16
2023-05-20T22:27:29.617Z,15.13
2023-05-20T22:29:56.140Z,15.11
2023-05-20T22:32:22.821Z,15.10
2023-05-20T22:34:49.317Z,15.08
2023-05-20T22:37:15.882Z,15.08
2023-05-20T22:39:42.383Z,15.07
2023-05-20T22:42:08.800Z,15.06
2023-05-20T22:44:35.372Z,15.07
2023-05-20T22:47:01.856Z,15.06
2023-05-20T22:49:28.393Z,15.06
2023-05-20T22:51:54.836Z,15.07
2023-05-20T22:54:21.318Z,15.12
2023-05-20T22:56:47.815Z,15.14
2023-05-20T22:59:14.313Z,15.16
2023-05-20T23:01:41.334Z,15.14
2023-05-20T23:04:07.914Z,15.15
2023-05-20T23:06:37.976Z,15.12
2023-05-20T23:09:04.629Z,15.09
2023-05-20T23:11:31.500Z,15.06
2023-05-20T23:13:58.325Z,15.06
2023-05-20T23:16:26.345Z,15.12
2023-05-20T23:18:53.617Z,15.17
2023-05-20T23:21:20.091Z,15.19
2023-05-20T23:23:46.565Z,15.17
2023-05-20T23:26:13.119Z,15.12
2023-05-20T23:28:39.949Z,15.09
2023-05-20T23:31:06.698Z,15.04
2023-05-20T23:33:33.328Z,14.98
2023-05-20T23:35:59.855Z,14.96
2023-05-20T23:38:26.431Z,14.95
2023-05-20T23:40:52.914Z,14.95
2023-05-20T23:43:19.372Z,14.97
2023-05-20T23:45:45.918Z,14.96
2023-05-20T23:48:13.464Z,14.96
2023-05-20T23:50:40.602Z,14.97
2023-05-20T23:53:07.083Z,14.94
2023-05-20T23:55:33.731Z,14.96
2023-05-20T23:58:00.467Z,15.02
